Time;durP1;ratioP1;P1;durP2;ratioP2;P2;SDS_P1;SDS_P2;PMS_P1;PMS_P2;Temp;Humidity;BMP_temperature;BMP_pressure;BME280_temperature;BME280_humidity;BME280_pressure;Samples;Min_cycle;Max_cycle;Signal;HPM_P1;HPM_P2
2023/03/20 00:01:51;;;;;;;5.90;5.25;;;;;;;;;;8238747;28;20044;-74
2023/03/20 00:05:51;;;;;;;7.63;6.10;;;;;;;;;;8239181;28;20154;-74
2023/03/20 00:09:52;;;;;;;5.95;5.35;;;;;;;;;;8243927;28;20021;-74
2023/03/20 00:13:52;;;;;;;6.72;5.80;;;;;;;;;;8240696;28;20025;-74
2023/03/20 00:17:53;;;;;;;5.47;4.82;;;;;;;;;;8236788;28;20039;-74
2023/03/20 00:21:54;;;;;;;6.15;5.55;;;;;;;;;;8238346;28;20026;-74
2023/03/20 00:25:55;;;;;;;5.25;4.75;;;;;;;;;;8242421;28;20023;-74
2023/03/20 00:29:55;;;;;;;7.78;5.90;;;;;;;;;;8239274;28;22417;-74
2023/03/20 00:33:57;;;;;;;6.07;5.43;;;;;;;;;;8237601;28;20509;-74
2023/03/20 00:37:57;;;;;;;6.50;5.72;;;;;;;;;;8237633;28;20137;-74
2023/03/20 00:42:00;;;;;;;6.72;6.00;;;;;;;;;;8236667;28;20018;-74
2023/03/20 00:46:01;;;;;;;10.63;6.97;;;;;;;;;;8238086;28;20084;-74
2023/03/20 00:50:01;;;;;;;6.78;6.00;;;;;;;;;;8236232;28;20034;-74
2023/03/20 00:54:05;;;;;;;7.75;6.90;;;;;;;;;;8247452;28;20037;-74
2023/03/20 00:58:05;;;;;;;7.13;6.07;;;;;;;;;;8237304;28;20030;-74
2023/03/20 01:02:05;;;;;;;8.27;6.75;;;;;;;;;;8237227;28;20308;-74
2023/03/20 01:06:05;;;;;;;8.00;7.00;;;;;;;;;;8252595;28;20749;-74
2023/03/20 01:10:06;;;;;;;6.40;5.80;;;;;;;;;;8237451;28;20032;-74
2023/03/20 01:14:11;;;;;;;6.93;6.13;;;;;;;;;;8241394;28;20116;-74
2023/03/20 01:18:12;;;;;;;8.38;6.90;;;;;;;;;;8240169;28;20065;-74
2023/03/20 01:22:16;;;;;;;7.90;5.97;;;;;;;;;;8235770;28;20030;-74
2023/03/20 01:26:22;;;;;;;7.20;6.32;;;;;;;;;;8238376;28;20025;-74
2023/03/20 01:30:24;;;;;;;7.72;6.68;;;;;;;;;;8236532;28;20049;-74
2023/03/20 01:34:24;;;;;;;9.15;7.25;;;;;;;;;;8238458;28;20376;-74
2023/03/20 01:38:26;;;;;;;10.25;8.35;;;;;;;;;;8245058;28;20021;-74
2023/03/20 01:42:26;;;;;;;11.25;9.32;;;;;;;;;;8237198;28;20029;-74
2023/03/20 01:46:28;;;;;;;9.95;8.88;;;;;;;;;;8238663;28;20036;-74
2023/03/20 01:50:32;;;;;;;8.70;7.80;;;;;;;;;;8240652;28;20026;-74
2023/03/20 01:54:34;;;;;;;9.60;8.60;;;;;;;;;;8238633;28;20046;-74
2023/03/20 01:58:36;;;;;;;11.88;10.32;;;;;;;;;;8239071;28;20030;-74
2023/03/20 02:02:37;;;;;;;9.68;8.57;;;;;;;;;;8237233;28;20038;-74
2023/03/20 02:06:39;;;;;;;9.20;8.15;;;;;;;;;;8239263;28;20125;-74
2023/03/20 02:10:39;;;;;;;10.50;9.15;;;;;;;;;;8246701;28;20140;-74
2023/03/20 02:14:40;;;;;;;9.02;7.80;;;;;;;;;;8238166;28;20049;-74
2023/03/20 02:18:42;;;;;;;10.45;9.35;;;;;;;;;;8236737;28;20030;-74
2023/03/20 02:23:02;;;;;;;9.70;8.63;;;;;;;;;;8237074;28;20027;-74
2023/03/20 02:27:02;;;;;;;10.60;8.38;;;;;;;;;;8222992;28;20042;-73
2023/03/20 02:31:09;;;;;;;10.23;9.18;;;;;;;;;;8242061;28;20677;-74
2023/03/20 02:35:31;;;;;;;12.30;10.55;;;;;;;;;;8243526;28;20022;-74
2023/03/20 02:39:56;;;;;;;10.45;9.35;;;;;;;;;;8243704;28;20026;-75
2023/03/20 02:44:08;;;;;;;10.23;9.13;;;;;;;;;;8242233;28;20021;-74
2023/03/20 02:48:09;;;;;;;14.13;11.32;;;;;;;;;;8243041;28;20033;-74
2023/03/20 02:52:12;;;;;;;14.43;10.52;;;;;;;;;;8243956;28;20018;-74
2023/03/20 02:56:38;;;;;;;11.27;10.03;;;;;;;;;;8244151;28;20026;-74
2023/03/20 03:01:00;;;;;;;12.40;11.13;;;;;;;;;;8238814;28;20046;-74
2023/03/20 03:05:02;;;;;;;12.63;11.20;;;;;;;;;;8242369;28;20025;-74
2023/03/20 03:09:09;;;;;;;13.48;10.80;;;;;;;;;;8246923;28;20145;-74
2023/03/20 03:13:12;;;;;;;12.02;10.73;;;;;;;;;;8242704;28;20026;-74
2023/03/20 03:17:14;;;;;;;11.43;9.57;;;;;;;;;;8244051;28;20034;-74
2023/03/20 03:21:16;;;;;;;12.73;9.73;;;;;;;;;;8240693;28;20742;-74
2023/03/20 03:25:16;;;;;;;10.77;9.55;;;;;;;;;;8240672;28;20704;-74
2023/03/20 03:29:18;;;;;;;13.43;10.90;;;;;;;;;;8239606;28;20124;-74
2023/03/20 03:33:18;;;;;;;11.25;9.40;;;;;;;;;;8240400;28;20761;-74
2023/03/20 03:37:19;;;;;;;10.00;8.82;;;;;;;;;;8243934;28;20046;-74
2023/03/20 03:41:29;;;;;;;10.70;9.23;;;;;;;;;;8240959;28;21313;-74
2023/03/20 03:45:32;;;;;;;8.77;7.75;;;;;;;;;;8239502;28;20096;-74
2023/03/20 03:49:34;;;;;;;9.60;8.68;;;;;;;;;;8240651;28;20034;-74
2023/03/20 03:53:37;;;;;;;10.02;9.02;;;;;;;;;;8242884;28;20041;-74
2023/03/20 03:57:43;;;;;;;10.57;9.48;;;;;;;;;;8241446;28;20038;-74
2023/03/20 04:01:44;;;;;;;12.88;10.02;;;;;;;;;;8240794;28;20057;-75
2023/03/20 04:05:45;;;;;;;10.95;9.32;;;;;;;;;;8241596;28;20017;-74
2023/03/20 04:09:46;;;;;;;11.63;10.43;;;;;;;;;;8241841;28;20050;-74
2023/03/20 04:13:47;;;;;;;10.20;9.07;;;;;;;;;;8239953;28;20192;-74
2023/03/20 04:17:47;;;;;;;10.23;9.10;;;;;;;;;;8242439;28;20042;-74
2023/03/20 04:21:47;;;;;;;13.02;10.85;;;;;;;;;;8241699;28;20505;-74
2023/03/20 04:25:48;;;;;;;11.15;9.95;;;;;;;;;;8255480;28;20897;-74
2023/03/20 04:29:48;;;;;;;16.10;12.18;;;;;;;;;;8239076;28;20026;-74
2023/03/20 04:33:48;;;;;;;14.43;12.20;;;;;;;;;;8239907;28;20048;-74
2023/03/20 04:37:48;;;;;;;12.73;10.70;;;;;;;;;;8239880;28;20026;-74
2023/03/20 04:41:49;;;;;;;13.35;10.80;;;;;;;;;;8241174;28;20034;-74
2023/03/20 04:45:49;;;;;;;13.18;10.65;;;;;;;;;;8240318;28;20720;-74
2023/03/20 04:49:49;;;;;;;13.40;11.57;;;;;;;;;;8238353;28;20030;-74
2023/03/20 04:53:49;;;;;;;12.05;10.07;;;;;;;;;;8246510;28;21334;-74
2023/03/20 04:57:50;;;;;;;12.77;10.60;;;;;;;;;;8240427;28;20093;-74
2023/03/20 05:01:50;;;;;;;12.83;10.10;;;;;;;;;;8239465;28;20033;-74
2023/03/20 05:05:50;;;;;;;11.55;10.35;;;;;;;;;;8239810;28;20280;-74
2023/03/20 05:09:50;;;;;;;12.90;11.00;;;;;;;;;;8245165;28;20033;-74
2023/03/20 05:13:51;;;;;;;13.15;11.13;;;;;;;;;;8237277;28;20077;-74
2023/03/20 05:17:51;;;;;;;16.15;11.80;;;;;;;;;;8237536;28;20567;-74
2023/03/20 05:21:51;;;;;;;12.73;10.15;;;;;;;;;;8240848;28;20026;-74
2023/03/20 05:25:52;;;;;;;14.32;10.20;;;;;;;;;;8240854;28;20019;-75
2023/03/20 05:29:52;;;;;;;13.02;10.40;;;;;;;;;;8242503;28;20062;-75
2023/03/20 05:33:52;;;;;;;12.77;10.57;;;;;;;;;;8239971;28;20030;-75
2023/03/20 05:37:52;;;;;;;11.63;9.23;;;;;;;;;;8240284;28;20117;-74
2023/03/20 05:41:52;;;;;;;11.88;10.65;;;;;;;;;;8232831;28;20019;-74
2023/03/20 05:45:53;;;;;;;11.95;9.82;;;;;;;;;;8239903;28;20068;-74
2023/03/20 05:49:53;;;;;;;11.48;8.95;;;;;;;;;;8238035;28;20867;-77
2023/03/20 05:53:53;;;;;;;11.93;9.40;;;;;;;;;;8252315;28;20183;-76
2023/03/20 05:57:53;;;;;;;16.60;10.82;;;;;;;;;;8239364;28;20030;-77
2023/03/20 06:01:53;;;;;;;17.90;13.15;;;;;;;;;;8243676;28;20034;-77
2023/03/20 06:05:54;;;;;;;18.25;13.13;;;;;;;;;;8247006;28;20022;-77
2023/03/20 06:09:54;;;;;;;23.53;14.03;;;;;;;;;;8247804;28;20040;-77
2023/03/20 06:13:54;;;;;;;20.73;14.80;;;;;;;;;;8248112;28;20506;-77
2023/03/20 06:17:55;;;;;;;28.67;15.93;;;;;;;;;;8260795;28;20022;-77
2023/03/20 06:21:55;;;;;;;23.23;15.40;;;;;;;;;;8263167;28;20033;-77
2023/03/20 06:25:55;;;;;;;21.23;15.02;;;;;;;;;;8247356;28;20029;-77
2023/03/20 06:29:56;;;;;;;21.63;14.25;;;;;;;;;;8247552;28;20149;-77
2023/03/20 06:33:56;;;;;;;19.67;14.10;;;;;;;;;;8246928;28;20127;-78
2023/03/20 06:37:57;;;;;;;20.23;15.05;;;;;;;;;;8249638;28;21241;-77
2023/03/20 06:41:57;;;;;;;16.67;13.57;;;;;;;;;;8246623;28;20022;-77
2023/03/20 06:45:57;;;;;;;18.77;14.98;;;;;;;;;;8250418;28;20768;-77
2023/03/20 06:49:57;;;;;;;19.33;14.00;;;;;;;;;;8248162;28;20027;-77
2023/03/20 06:53:57;;;;;;;14.13;12.07;;;;;;;;;;8248113;28;20029;-77
2023/03/20 06:57:58;;;;;;;17.63;13.27;;;;;;;;;;8246979;28;20058;-78
2023/03/20 07:01:58;;;;;;;15.60;12.48;;;;;;;;;;8261763;28;20061;-77
2023/03/20 07:05:59;;;;;;;18.47;12.00;;;;;;;;;;8246292;28;20033;-77
2023/03/20 07:09:59;;;;;;;15.15;12.10;;;;;;;;;;8242752;28;20057;-78
2023/03/20 07:14:00;;;;;;;18.65;12.32;;;;;;;;;;8244731;28;20057;-77
2023/03/20 07:18:00;;;;;;;17.17;11.60;;;;;;;;;;8245841;28;20152;-77
2023/03/20 07:22:01;;;;;;;17.70;11.65;;;;;;;;;;8248441;28;20049;-78
2023/03/20 07:26:02;;;;;;;17.88;12.38;;;;;;;;;;8251241;28;20080;-77
2023/03/20 07:30:03;;;;;;;17.73;13.13;;;;;;;;;;8245580;28;20116;-78
2023/03/20 07:34:03;;;;;;;20.38;13.40;;;;;;;;;;8244205;28;21970;-78
2023/03/20 07:38:04;;;;;;;19.23;14.07;;;;;;;;;;8247383;28;20032;-78
2023/03/20 07:42:05;;;;;;;21.75;12.95;;;;;;;;;;8244495;28;20305;-77
2023/03/20 07:46:06;;;;;;;26.60;15.35;;;;;;;;;;8241995;28;21003;-77
2023/03/20 07:50:07;;;;;;;23.88;13.10;;;;;;;;;;8248551;28;20025;-78
2023/03/20 07:54:07;;;;;;;18.67;12.98;;;;;;;;;;8242478;28;20370;-78
2023/03/20 07:58:07;;;;;;;18.67;12.82;;;;;;;;;;8244836;28;20044;-78
2023/03/20 08:02:12;;;;;;;16.15;11.70;;;;;;;;;;8244775;28;20037;-77
2023/03/20 08:06:12;;;;;;;16.13;11.27;;;;;;;;;;8254103;28;20030;-78
2023/03/20 08:10:13;;;;;;;14.75;9.10;;;;;;;;;;8243254;28;20140;-77
2023/03/20 08:14:13;;;;;;;13.55;10.40;;;;;;;;;;8245103;28;20388;-77
2023/03/20 08:18:13;;;;;;;16.65;10.07;;;;;;;;;;8244352;28;20032;-77
2023/03/20 08:22:13;;;;;;;13.77;10.75;;;;;;;;;;8244047;28;20050;-77
2023/03/20 08:26:13;;;;;;;13.50;9.50;;;;;;;;;;8242060;28;20058;-77
2023/03/20 08:30:14;;;;;;;14.52;9.45;;;;;;;;;;8243168;28;20021;-77
2023/03/20 08:34:14;;;;;;;17.02;10.38;;;;;;;;;;8249322;28;20157;-77
2023/03/20 08:38:15;;;;;;;11.38;8.27;;;;;;;;;;8245208;28;20022;-77
2023/03/20 08:42:15;;;;;;;14.40;8.37;;;;;;;;;;8247356;28;20019;-77
2023/03/20 08:46:15;;;;;;;11.60;7.60;;;;;;;;;;8244658;28;20271;-76
2023/03/20 08:50:15;;;;;;;11.52;7.57;;;;;;;;;;8241234;28;20084;-77
2023/03/20 08:54:17;;;;;;;8.30;6.60;;;;;;;;;;8241100;28;20076;-77
2023/03/20 08:58:18;;;;;;;10.77;7.20;;;;;;;;;;8258603;28;20092;-77
2023/03/20 09:02:18;;;;;;;10.10;7.57;;;;;;;;;;8240750;28;20048;-77
2023/03/20 09:06:18;;;;;;;12.43;8.07;;;;;;;;;;8244162;28;20020;-77
2023/03/20 09:10:18;;;;;;;12.65;8.30;;;;;;;;;;8242730;28;20017;-77
2023/03/20 09:14:18;;;;;;;14.60;9.10;;;;;;;;;;8242007;28;20072;-77
2023/03/20 09:18:19;;;;;;;11.07;7.95;;;;;;;;;;8239858;28;20062;-77
2023/03/20 09:22:20;;;;;;;11.18;6.75;;;;;;;;;;8255257;28;20022;-77
2023/03/20 09:26:20;;;;;;;9.48;7.03;;;;;;;;;;8257079;28;20889;-77
2023/03/20 09:30:22;;;;;;;7.67;5.23;;;;;;;;;;8242393;28;20096;-77
2023/03/20 09:34:23;;;;;;;6.30;5.10;;;;;;;;;;8243221;28;20269;-78
2023/03/20 09:38:23;;;;;;;6.43;4.97;;;;;;;;;;8256722;28;20049;-77
2023/03/20 09:42:31;;;;;;;7.85;6.25;;;;;;;;;;8241003;28;20279;-77
2023/03/20 09:46:34;;;;;;;7.32;6.07;;;;;;;;;;8240780;28;20121;-77
2023/03/20 09:50:50;;;;;;;9.35;6.82;;;;;;;;;;8242266;28;20895;-77
2023/03/20 09:54:51;;;;;;;7.85;6.45;;;;;;;;;;8254975;28;20026;-77
2023/03/20 09:58:57;;;;;;;8.55;5.82;;;;;;;;;;8238975;28;20036;-77
2023/03/20 10:02:59;;;;;;;7.70;5.50;;;;;;;;;;8239060;28;20030;-77
2023/03/20 10:07:02;;;;;;;8.35;5.68;;;;;;;;;;8240519;28;20069;-78
2023/03/20 10:11:05;;;;;;;7.65;5.70;;;;;;;;;;8241821;28;20018;-77
2023/03/20 10:15:12;;;;;;;8.55;5.45;;;;;;;;;;8244113;28;20093;-77
2023/03/20 10:19:29;;;;;;;9.98;5.18;;;;;;;;;;8248566;28;20030;-76
2023/03/20 10:23:41;;;;;;;5.50;4.97;;;;;;;;;;8255583;28;20041;-77
2023/03/20 10:27:41;;;;;;;5.43;4.88;;;;;;;;;;8241164;28;20026;-77
2023/03/20 10:31:57;;;;;;;5.40;4.32;;;;;;;;;;8245511;28;20041;-77
2023/03/20 10:36:07;;;;;;;5.35;4.82;;;;;;;;;;8241283;28;20030;-77
2023/03/20 10:40:23;;;;;;;8.48;4.95;;;;;;;;;;8241537;28;20714;-77
2023/03/20 10:44:44;;;;;;;5.38;4.50;;;;;;;;;;8245461;28;20494;-78
2023/03/20 10:48:46;;;;;;;6.57;5.13;;;;;;;;;;8244714;28;20038;-77
2023/03/20 10:52:48;;;;;;;7.35;4.88;;;;;;;;;;8247143;28;20910;-77
2023/03/20 10:56:50;;;;;;;6.95;4.97;;;;;;;;;;8247134;28;20744;-77
2023/03/20 11:00:51;;;;;;;5.45;4.28;;;;;;;;;;8247789;28;20049;-76
2023/03/20 11:04:52;;;;;;;5.43;4.88;;;;;;;;;;8236744;28;22089;-76
2023/03/20 11:08:52;;;;;;;5.60;4.05;;;;;;;;;;8243257;28;20112;-76
2023/03/20 11:12:52;;;;;;;6.93;4.65;;;;;;;;;;8242202;28;20030;-76
2023/03/20 11:16:54;;;;;;;5.75;4.40;;;;;;;;;;8243227;28;20678;-76
2023/03/20 11:20:55;;;;;;;7.00;4.85;;;;;;;;;;8245027;28;20414;-77
2023/03/20 11:25:01;;;;;;;5.78;5.00;;;;;;;;;;8245448;28;20036;-77
2023/03/20 11:29:04;;;;;;;5.97;5.20;;;;;;;;;;8246872;28;20037;-77
2023/03/20 11:33:07;;;;;;;6.70;4.85;;;;;;;;;;8243067;28;20065;-77
2023/03/20 11:37:34;;;;;;;5.90;5.00;;;;;;;;;;8246075;28;20022;-77
2023/03/20 11:41:40;;;;;;;8.07;5.07;;;;;;;;;;8243049;28;20490;-76
2023/03/20 11:45:41;;;;;;;6.18;4.78;;;;;;;;;;8247459;28;20045;-76
2023/03/20 11:49:53;;;;;;;8.13;5.22;;;;;;;;;;8243488;28;20104;-76
2023/03/20 11:53:57;;;;;;;5.13;4.63;;;;;;;;;;8241491;28;20030;-76
2023/03/20 11:57:58;;;;;;;4.82;3.88;;;;;;;;;;8243518;28;20391;-76
2023/03/20 12:01:58;;;;;;;7.20;4.40;;;;;;;;;;8253639;28;20072;-76
2023/03/20 12:05:59;;;;;;;6.78;4.65;;;;;;;;;;8247379;28;20022;-76
2023/03/20 12:10:05;;;;;;;6.40;4.30;;;;;;;;;;8246882;28;20033;-76
2023/03/20 12:14:10;;;;;;;5.63;3.75;;;;;;;;;;8241935;28;20674;-77
2023/03/20 12:18:15;;;;;;;5.72;3.78;;;;;;;;;;8243474;28;20232;-76
2023/03/20 12:22:22;;;;;;;7.03;3.83;;;;;;;;;;8249120;28;20655;-76
2023/03/20 12:26:41;;;;;;;5.13;3.55;;;;;;;;;;8242297;28;20022;-77
2023/03/20 12:30:44;;;;;;;5.40;4.20;;;;;;;;;;8246711;28;20144;-77
2023/03/20 12:34:53;;;;;;;5.95;3.95;;;;;;;;;;8244556;28;20049;-78
2023/03/20 12:38:53;;;;;;;5.95;3.67;;;;;;;;;;8243066;28;20149;-77
2023/03/20 12:42:53;;;;;;;7.65;4.50;;;;;;;;;;8238232;28;20053;-77
2023/03/20 12:47:12;;;;;;;6.50;4.07;;;;;;;;;;8243962;28;20045;-76
2023/03/20 12:51:12;;;;;;;5.40;3.70;;;;;;;;;;8242777;28;20034;-76
2023/03/20 12:55:31;;;;;;;4.40;3.13;;;;;;;;;;8244121;28;20851;-77
2023/03/20 12:59:38;;;;;;;3.90;2.90;;;;;;;;;;8247124;28;20060;-76
2023/03/20 13:03:58;;;;;;;4.22;3.13;;;;;;;;;;8238153;28;20050;-77
2023/03/20 13:08:22;;;;;;;6.47;3.17;;;;;;;;;;8229593;28;21863;-77
2023/03/20 13:12:41;;;;;;;4.13;3.72;;;;;;;;;;8243182;28;20390;-77
2023/03/20 13:16:44;;;;;;;6.18;3.13;;;;;;;;;;8242248;28;20038;-76
2023/03/20 13:20:47;;;;;;;5.67;3.13;;;;;;;;;;8240815;28;20022;-77
2023/03/20 13:24:49;;;;;;;5.75;3.25;;;;;;;;;;8238075;28;20061;-76
2023/03/20 13:28:52;;;;;;;4.20;3.00;;;;;;;;;;8237544;28;20068;-76
2023/03/20 13:33:08;;;;;;;4.53;2.67;;;;;;;;;;8252832;28;20038;-76
2023/03/20 13:37:08;;;;;;;4.97;3.08;;;;;;;;;;8242257;28;20023;-77
2023/03/20 13:41:09;;;;;;;4.47;3.17;;;;;;;;;;8240023;28;20137;-76
2023/03/20 13:45:27;;;;;;;4.55;2.67;;;;;;;;;;8253830;28;20025;-76
2023/03/20 13:49:28;;;;;;;4.43;3.05;;;;;;;;;;8239115;28;20426;-77
2023/03/20 13:53:31;;;;;;;7.68;3.05;;;;;;;;;;8240078;28;20196;-76
2023/03/20 13:57:43;;;;;;;3.80;2.90;;;;;;;;;;8239261;28;20030;-77
2023/03/20 14:01:49;;;;;;;4.47;3.15;;;;;;;;;;8254887;28;20789;-78
2023/03/20 14:05:50;;;;;;;7.93;4.20;;;;;;;;;;8238442;28;20898;-78
2023/03/20 14:09:52;;;;;;;5.28;3.35;;;;;;;;;;8240996;28;20068;-76
2023/03/20 14:13:54;;;;;;;4.93;3.35;;;;;;;;;;8240438;28;20083;-77
2023/03/20 14:17:54;;;;;;;5.72;3.17;;;;;;;;;;8237098;28;20034;-77
2023/03/20 14:21:55;;;;;;;4.38;2.83;;;;;;;;;;8237364;28;20061;-77
2023/03/20 14:25:55;;;;;;;5.82;3.40;;;;;;;;;;8255243;28;20025;-78
2023/03/20 14:29:56;;;;;;;4.22;3.30;;;;;;;;;;8244200;28;20029;-76
2023/03/20 14:34:06;;;;;;;6.20;3.75;;;;;;;;;;8242815;28;20030;-78
2023/03/20 14:38:12;;;;;;;4.20;3.00;;;;;;;;;;8250336;28;22358;-77
2023/03/20 14:42:34;;;;;;;5.57;3.20;;;;;;;;;;8259439;28;20866;-78
2023/03/20 14:46:53;;;;;;;5.50;3.47;;;;;;;;;;8243119;28;20044;-77
2023/03/20 14:51:12;;;;;;;5.80;2.50;;;;;;;;;;8244509;28;20111;-77
2023/03/20 14:55:27;;;;;;;9.02;2.50;;;;;;;;;;8243619;28;20383;-76
2023/03/20 14:59:31;;;;;;;9.02;3.63;;;;;;;;;;8243239;28;20034;-77
2023/03/20 15:03:32;;;;;;;6.20;3.40;;;;;;;;;;8239758;28;20611;-76
2023/03/20 15:07:35;;;;;;;5.80;3.28;;;;;;;;;;8247287;28;20029;-75
2023/03/20 15:11:36;;;;;;;5.97;3.38;;;;;;;;;;8245692;28;20026;-77
2023/03/20 15:15:36;;;;;;;3.17;2.50;;;;;;;;;;8244590;28;20305;-77
2023/03/20 15:19:38;;;;;;;8.80;2.50;;;;;;;;;;8243949;28;20096;-76
2023/03/20 15:23:40;;;;;;;3.83;2.35;;;;;;;;;;8245754;28;20022;-76
2023/03/20 15:27:40;;;;;;;3.83;2.38;;;;;;;;;;8240776;28;20030;-76
2023/03/20 15:31:40;;;;;;;5.93;2.63;;;;;;;;;;8241684;28;20050;-78
2023/03/20 15:35:41;;;;;;;5.32;2.90;;;;;;;;;;8244669;28;20029;-77
2023/03/20 15:39:42;;;;;;;2.97;2.03;;;;;;;;;;8241803;28;20037;-77
2023/03/20 15:43:43;;;;;;;5.70;2.50;;;;;;;;;;8241486;28;20026;-77
2023/03/20 15:47:43;;;;;;;5.80;2.50;;;;;;;;;;8242394;28;20039;-77
2023/03/20 15:51:43;;;;;;;3.75;2.28;;;;;;;;;;8244926;28;20116;-77
2023/03/20 15:55:48;;;;;;;7.28;2.33;;;;;;;;;;8243302;28;20105;-77
2023/03/20 15:59:49;;;;;;;3.35;2.53;;;;;;;;;;8239775;28;20045;-77
2023/03/20 16:03:50;;;;;;;6.32;2.47;;;;;;;;;;8236535;28;20033;-76
2023/03/20 16:07:50;;;;;;;6.95;2.53;;;;;;;;;;8239225;28;20045;-76
2023/03/20 16:11:58;;;;;;;5.18;2.50;;;;;;;;;;8240792;28;20032;-76
2023/03/20 16:15:59;;;;;;;4.13;2.45;;;;;;;;;;8242914;28;20057;-75
2023/03/20 16:19:59;;;;;;;3.65;2.45;;;;;;;;;;8239098;28;20014;-76
2023/03/20 16:24:00;;;;;;;4.97;2.60;;;;;;;;;;8241514;28;20030;-75
2023/03/20 16:28:01;;;;;;;7.03;2.95;;;;;;;;;;8239908;28;20029;-75
2023/03/20 16:32:05;;;;;;;7.30;3.17;;;;;;;;;;8238838;28;20061;-76
2023/03/20 16:36:05;;;;;;;3.93;2.37;;;;;;;;;;8242968;28;21825;-76
2023/03/20 16:40:16;;;;;;;5.57;2.80;;;;;;;;;;8238877;28;20038;-75
2023/03/20 16:44:18;;;;;;;4.88;2.53;;;;;;;;;;8241142;28;20149;-75
2023/03/20 16:48:21;;;;;;;5.88;2.30;;;;;;;;;;8240283;28;20156;-75
2023/03/20 16:52:26;;;;;;;5.37;2.50;;;;;;;;;;8243883;28;20029;-75
2023/03/20 16:56:31;;;;;;;6.20;2.50;;;;;;;;;;8245596;28;20543;-75
2023/03/20 17:00:40;;;;;;;3.15;2.15;;;;;;;;;;8255078;28;20803;-75
2023/03/20 17:04:48;;;;;;;6.13;2.60;;;;;;;;;;8239657;28;20030;-75
2023/03/20 17:08:51;;;;;;;5.35;2.10;;;;;;;;;;8238942;28;20913;-76
2023/03/20 17:12:52;;;;;;;4.00;2.17;;;;;;;;;;8239558;28;20026;-74
2023/03/20 17:16:55;;;;;;;5.03;2.65;;;;;;;;;;8255864;28;20042;-75
2023/03/20 17:20:55;;;;;;;5.13;2.38;;;;;;;;;;8238183;28;20025;-76
2023/03/20 17:24:55;;;;;;;4.25;2.53;;;;;;;;;;8238116;28;20029;-76
2023/03/20 17:28:55;;;;;;;8.00;2.58;;;;;;;;;;8243623;28;20052;-76
2023/03/20 17:32:56;;;;;;;5.00;2.38;;;;;;;;;;8243832;28;20199;-75
2023/03/20 17:36:58;;;;;;;3.85;2.40;;;;;;;;;;8244367;28;20018;-75
2023/03/20 17:40:58;;;;;;;9.43;2.50;;;;;;;;;;8235020;28;20088;-75
2023/03/20 17:45:00;;;;;;;4.47;2.15;;;;;;;;;;8237887;28;20026;-75
2023/03/20 17:49:04;;;;;;;8.07;2.72;;;;;;;;;;8235273;28;20062;-75
2023/03/20 17:53:04;;;;;;;6.35;2.28;;;;;;;;;;8237541;28;21098;-76
2023/03/20 17:57:05;;;;;;;5.25;2.20;;;;;;;;;;8243353;28;20026;-74
2023/03/20 18:01:07;;;;;;;3.63;1.92;;;;;;;;;;8244517;28;20947;-74
2023/03/20 18:05:08;;;;;;;6.85;1.95;;;;;;;;;;8242464;28;20014;-74
2023/03/20 18:09:12;;;;;;;3.85;2.05;;;;;;;;;;8243184;28;20655;-74
2023/03/20 18:13:12;;;;;;;4.88;2.08;;;;;;;;;;8243696;28;20030;-72
2023/03/20 18:17:13;;;;;;;3.23;1.73;;;;;;;;;;8242328;28;20682;-72
2023/03/20 18:21:14;;;;;;;6.38;2.38;;;;;;;;;;8243730;28;20308;-72
2023/03/20 18:25:14;;;;;;;4.15;1.80;;;;;;;;;;8236105;28;20025;-73
2023/03/20 18:29:15;;;;;;;6.53;2.00;;;;;;;;;;8235935;28;20187;-73
2023/03/20 18:33:15;;;;;;;3.22;1.95;;;;;;;;;;8239542;28;20026;-72
2023/03/20 18:37:15;;;;;;;3.13;1.70;;;;;;;;;;8238874;28;20024;-73
2023/03/20 18:41:15;;;;;;;2.55;1.60;;;;;;;;;;8240563;28;20033;-72
2023/03/20 18:45:16;;;;;;;5.68;1.80;;;;;;;;;;8249687;28;20028;-72
2023/03/20 18:49:16;;;;;;;3.33;1.85;;;;;;;;;;8238193;28;20018;-72
2023/03/20 18:53:17;;;;;;;6.18;1.70;;;;;;;;;;8236178;28;20036;-72
2023/03/20 18:57:17;;;;;;;5.60;1.97;;;;;;;;;;8236621;28;20627;-72
2023/03/20 19:01:18;;;;;;;3.17;1.60;;;;;;;;;;8239468;28;20313;-72
2023/03/20 19:05:18;;;;;;;6.30;1.67;;;;;;;;;;8236685;28;20031;-72
2023/03/20 19:09:18;;;;;;;4.50;1.90;;;;;;;;;;8238392;28;20064;-72
2023/03/20 19:13:19;;;;;;;2.83;1.65;;;;;;;;;;8241329;28;20014;-72
2023/03/20 19:17:20;;;;;;;4.43;1.67;;;;;;;;;;8238809;28;20030;-72
2023/03/20 19:21:24;;;;;;;4.25;1.60;;;;;;;;;;8239308;28;20033;-72
2023/03/20 19:25:25;;;;;;;2.35;1.50;;;;;;;;;;8239163;28;20873;-72
2023/03/20 19:29:25;;;;;;;3.38;1.70;;;;;;;;;;8240907;28;20049;-72
2023/03/20 19:33:25;;;;;;;2.50;1.70;;;;;;;;;;8239839;28;20145;-72
2023/03/20 19:37:26;;;;;;;1.90;1.42;;;;;;;;;;8238870;28;21105;-72
2023/03/20 19:41:27;;;;;;;4.68;1.70;;;;;;;;;;8242306;28;20064;-72
2023/03/20 19:45:29;;;;;;;6.63;2.00;;;;;;;;;;8254402;28;20054;-73
2023/03/20 19:49:31;;;;;;;4.03;1.80;;;;;;;;;;8243309;28;20027;-72
2023/03/20 19:53:31;;;;;;;3.97;1.58;;;;;;;;;;8238507;28;20025;-73
2023/03/20 19:57:32;;;;;;;4.57;1.63;;;;;;;;;;8239450;28;20817;-73
2023/03/20 20:01:32;;;;;;;4.25;1.65;;;;;;;;;;8235991;28;20093;-73
2023/03/20 20:05:33;;;;;;;4.15;1.65;;;;;;;;;;8251945;28;20015;-73
2023/03/20 20:09:33;;;;;;;3.45;1.55;;;;;;;;;;8237816;28;20038;-73
2023/03/20 20:13:34;;;;;;;3.78;1.70;;;;;;;;;;8241638;28;20395;-73
2023/03/20 20:17:34;;;;;;;2.83;1.60;;;;;;;;;;8237987;28;20034;-73
2023/03/20 20:21:34;;;;;;;2.87;1.53;;;;;;;;;;8235054;28;20280;-73
2023/03/20 20:25:34;;;;;;;4.00;1.75;;;;;;;;;;8235501;28;20272;-73
2023/03/20 20:29:35;;;;;;;3.35;1.70;;;;;;;;;;8240052;28;20136;-74
2023/03/20 20:33:35;;;;;;;3.93;1.70;;;;;;;;;;8235853;28;20087;-74
2023/03/20 20:37:38;;;;;;;5.72;1.70;;;;;;;;;;8234558;28;20034;-73
2023/03/20 20:41:44;;;;;;;4.63;1.70;;;;;;;;;;8417289;27;20420;-64
2023/03/20 20:45:44;;;;;;;5.47;1.90;;;;;;;;;;8385293;28;20075;-63
2023/03/20 20:49:45;;;;;;;6.00;1.90;;;;;;;;;;8324074;28;20290;-63
2023/03/20 20:53:45;;;;;;;4.57;1.73;;;;;;;;;;8331243;28;20044;-64
2023/03/20 20:57:46;;;;;;;5.43;1.83;;;;;;;;;;8317130;28;20244;-63
2023/03/20 21:01:47;;;;;;;3.22;1.45;;;;;;;;;;8325338;28;20037;-63
2023/03/20 21:05:47;;;;;;;5.40;1.55;;;;;;;;;;8323575;28;20047;-63
2023/03/20 21:09:48;;;;;;;5.83;1.87;;;;;;;;;;8321597;28;20594;-64
2023/03/20 21:13:52;;;;;;;2.67;1.35;;;;;;;;;;8333219;28;20291;-63
2023/03/20 21:17:52;;;;;;;6.30;1.83;;;;;;;;;;8332129;28;20041;-63
2023/03/20 21:21:52;;;;;;;3.70;1.70;;;;;;;;;;8332939;28;20024;-63
2023/03/20 21:25:52;;;;;;;4.17;1.43;;;;;;;;;;8336913;28;20029;-64
2023/03/20 21:29:53;;;;;;;5.47;1.75;;;;;;;;;;8329320;28;20276;-64
2023/03/20 21:33:53;;;;;;;3.87;1.50;;;;;;;;;;8331620;28;20044;-63
2023/03/20 21:37:53;;;;;;;6.38;1.63;;;;;;;;;;8333445;28;20295;-64
2023/03/20 21:41:53;;;;;;;7.03;1.83;;;;;;;;;;8333763;28;20601;-63
2023/03/20 21:45:54;;;;;;;6.28;1.75;;;;;;;;;;8331470;28;20063;-64
2023/03/20 21:49:55;;;;;;;4.80;1.60;;;;;;;;;;8329759;28;20441;-64
2023/03/20 21:53:55;;;;;;;4.25;1.73;;;;;;;;;;8311686;28;20276;-64
2023/03/20 21:57:56;;;;;;;5.05;1.88;;;;;;;;;;8312861;28;20104;-63
2023/03/20 22:01:56;;;;;;;5.40;1.67;;;;;;;;;;8312242;28;20037;-63
2023/03/20 22:05:56;;;;;;;5.25;1.55;;;;;;;;;;8311568;28;20032;-63
2023/03/20 22:09:57;;;;;;;5.30;1.77;;;;;;;;;;8312765;28;20083;-63
2023/03/20 22:13:57;;;;;;;3.30;1.38;;;;;;;;;;8310388;28;20032;-63
2023/03/20 22:17:57;;;;;;;5.63;1.70;;;;;;;;;;8311329;28;20048;-64
2023/03/20 22:21:58;;;;;;;5.63;2.00;;;;;;;;;;8308367;28;20083;-64
2023/03/20 22:25:59;;;;;;;3.10;1.50;;;;;;;;;;8298257;28;20115;-63
2023/03/20 22:29:59;;;;;;;5.25;1.85;;;;;;;;;;8308963;28;20494;-64
2023/03/20 22:34:00;;;;;;;4.53;1.70;;;;;;;;;;8311374;28;20103;-64
2023/03/20 22:38:00;;;;;;;4.13;1.50;;;;;;;;;;8306375;28;20074;-64
2023/03/20 22:42:00;;;;;;;5.82;1.60;;;;;;;;;;8307433;28;20287;-64
2023/03/20 22:46:01;;;;;;;5.45;1.70;;;;;;;;;;8305471;28;20033;-63
2023/03/20 22:50:01;;;;;;;6.63;1.70;;;;;;;;;;8312860;28;20041;-63
2023/03/20 22:54:01;;;;;;;5.75;1.80;;;;;;;;;;8310857;28;20029;-64
2023/03/20 22:58:01;;;;;;;4.90;1.80;;;;;;;;;;8310396;28;20029;-64
2023/03/20 23:02:02;;;;;;;4.63;1.80;;;;;;;;;;8310117;28;20152;-64
2023/03/20 23:06:09;;;;;;;8.13;1.80;;;;;;;;;;8313104;28;20033;-63
2023/03/20 23:10:12;;;;;;;4.10;2.00;;;;;;;;;;8309868;28;20026;-63
2023/03/20 23:14:12;;;;;;;4.65;1.80;;;;;;;;;;8311775;28;20280;-64
2023/03/20 23:18:13;;;;;;;6.75;2.25;;;;;;;;;;8308922;28;20952;-63
2023/03/20 23:22:13;;;;;;;6.78;1.70;;;;;;;;;;8309585;28;20025;-63
2023/03/20 23:26:15;;;;;;;6.18;2.25;;;;;;;;;;8310205;28;20126;-63
2023/03/20 23:30:15;;;;;;;3.42;1.55;;;;;;;;;;8309303;28;20045;-63
2023/03/20 23:34:15;;;;;;;5.05;1.85;;;;;;;;;;8310378;28;20033;-63
2023/03/20 23:38:15;;;;;;;3.70;1.77;;;;;;;;;;8311361;28;20024;-63
2023/03/20 23:42:15;;;;;;;5.53;1.70;;;;;;;;;;8299944;28;20789;-63
2023/03/20 23:46:15;;;;;;;3.60;1.73;;;;;;;;;;8309194;28;20025;-64
2023/03/20 23:50:19;;;;;;;6.57;1.80;;;;;;;;;;8308213;28;20037;-63
2023/03/20 23:54:19;;;;;;;8.13;2.00;;;;;;;;;;8311153;28;20778;-63
2023/03/20 23:58:20;;;;;;;4.32;1.70;;;;;;;;;;8308537;28;20020;-63
